createdAt,value
2018-12-05T00:00:09.887Z,0.00
2018-12-05T00:01:09.863Z,0.00
2018-12-05T00:02:09.836Z,0.00
2018-12-05T00:03:09.814Z,0.00
2018-12-05T00:04:09.788Z,0.00
2018-12-05T00:05:09.768Z,0.00
2018-12-05T00:06:09.746Z,0.00
2018-12-05T00:07:09.712Z,0.00
2018-12-05T00:08:09.688Z,0.00
2018-12-05T00:09:09.662Z,0.00
2018-12-05T00:10:09.637Z,0.00
2018-12-05T00:11:09.613Z,0.00
2018-12-05T00:12:09.588Z,0.00
2018-12-05T00:13:09.562Z,0.00
2018-12-05T00:14:09.537Z,0.00
2018-12-05T00:15:09.511Z,0.00
2018-12-05T00:16:09.488Z,0.00
2018-12-05T00:17:09.526Z,0.00
2018-12-05T00:18:09.442Z,0.00
2018-12-05T00:19:09.425Z,0.00
2018-12-05T00:20:09.388Z,0.00
2018-12-05T00:21:09.362Z,0.00
2018-12-05T00:22:09.339Z,0.00
2018-12-05T00:23:09.314Z,0.00
2018-12-05T00:24:09.289Z,0.00
2018-12-05T00:25:09.260Z,0.00
2018-12-05T00:26:09.237Z,0.00
2018-12-05T00:27:09.214Z,0.00
2018-12-05T00:28:09.197Z,0.00
2018-12-05T00:29:09.163Z,0.00
2018-12-05T00:30:09.140Z,0.00
2018-12-05T00:31:09.114Z,0.00
2018-12-05T00:32:09.088Z,0.00
2018-12-05T00:33:09.066Z,0.00
2018-12-05T00:34:09.040Z,0.00
2018-12-05T00:35:09.025Z,0.00
2018-12-05T00:36:08.989Z,0.00
2018-12-05T00:37:08.973Z,0.00
2018-12-05T00:38:08.939Z,0.00
2018-12-05T00:39:08.912Z,0.00
2018-12-05T00:40:08.894Z,0.00
2018-12-05T00:41:08.862Z,0.00
2018-12-05T00:42:08.841Z,0.00
2018-12-05T00:43:08.826Z,0.00
2018-12-05T00:44:08.794Z,0.00
2018-12-05T00:45:08.763Z,0.00
2018-12-05T00:46:08.741Z,0.00
2018-12-05T00:47:08.719Z,0.00
2018-12-05T00:48:08.693Z,0.00
2018-12-05T00:49:08.665Z,0.00
2018-12-05T00:50:08.639Z,0.00
2018-12-05T00:51:08.616Z,0.00
2018-12-05T00:52:08.595Z,0.00
2018-12-05T00:53:08.567Z,0.00
2018-12-05T00:54:08.543Z,0.00
2018-12-05T00:55:08.515Z,0.00
2018-12-05T00:56:08.505Z,0.00
2018-12-05T00:57:08.468Z,0.00
2018-12-05T00:58:08.453Z,0.00
2018-12-05T00:59:08.421Z,0.00
2018-12-05T01:00:08.407Z,0.00
2018-12-05T01:01:08.367Z,0.00
2018-12-05T01:02:08.342Z,0.00
2018-12-05T01:03:08.334Z,0.00
2018-12-05T01:04:08.304Z,0.00
2018-12-05T01:05:08.274Z,0.00
2018-12-05T01:06:08.253Z,0.00
2018-12-05T01:07:08.221Z,0.00
2018-12-05T01:08:08.197Z,0.00
2018-12-05T01:09:08.185Z,0.00
2018-12-05T01:10:08.145Z,0.00
2018-12-05T01:11:08.125Z,0.00
2018-12-05T01:12:08.098Z,0.00
2018-12-05T01:13:08.072Z,0.00
2018-12-05T01:14:08.048Z,0.00
2018-12-05T01:15:08.024Z,0.00
2018-12-05T01:16:08.000Z,0.00
2018-12-05T01:17:07.980Z,0.00
2018-12-05T01:18:07.954Z,0.00
2018-12-05T01:19:07.925Z,0.00
2018-12-05T01:20:07.909Z,0.00
2018-12-05T01:21:07.876Z,0.00
2018-12-05T01:22:07.851Z,0.00
2018-12-05T01:23:07.827Z,0.00
2018-12-05T01:24:07.803Z,0.00
2018-12-05T01:25:07.790Z,0.00
2018-12-05T01:26:07.751Z,0.00
2018-12-05T01:27:07.730Z,0.00
2018-12-05T01:28:07.705Z,0.00
2018-12-05T01:29:07.678Z,0.00
2018-12-05T01:30:07.651Z,0.00
2018-12-05T01:31:07.632Z,0.00
2018-12-05T01:32:07.603Z,0.00
2018-12-05T01:33:07.595Z,0.00
2018-12-05T01:34:07.557Z,0.00
2018-12-05T01:35:07.530Z,0.00
2018-12-05T01:36:07.506Z,0.00
2018-12-05T01:37:07.479Z,0.00
2018-12-05T01:38:07.453Z,0.00
2018-12-05T01:39:07.430Z,0.00
2018-12-05T01:40:07.408Z,0.00
2018-12-05T01:41:07.388Z,0.00
2018-12-05T01:42:07.356Z,0.00
2018-12-05T01:43:07.340Z,0.00
2018-12-05T01:44:07.307Z,0.00
2018-12-05T01:45:07.281Z,0.00
2018-12-05T01:46:07.259Z,0.00
2018-12-05T01:47:07.232Z,0.00
2018-12-05T01:48:07.206Z,0.00
2018-12-05T01:49:07.181Z,0.00
2018-12-05T01:50:07.156Z,0.00
2018-12-05T01:51:07.132Z,0.00
2018-12-05T01:52:07.109Z,0.00
2018-12-05T01:53:07.081Z,0.00
2018-12-05T01:54:07.059Z,0.00
2018-12-05T01:55:07.033Z,0.00
2018-12-05T01:56:07.010Z,0.00
2018-12-05T01:57:06.993Z,0.00
2018-12-05T01:58:06.958Z,0.00
2018-12-05T01:59:06.934Z,0.00
2018-12-05T02:00:06.912Z,0.00
2018-12-05T02:01:06.882Z,0.00
2018-12-05T02:02:06.861Z,0.00
2018-12-05T02:03:06.835Z,0.00
2018-12-05T02:04:06.814Z,0.00
2018-12-05T02:05:06.792Z,0.00
2018-12-05T02:06:06.765Z,0.00
2018-12-05T02:07:06.740Z,0.00
2018-12-05T02:08:06.720Z,0.00
2018-12-05T02:09:06.693Z,0.00
2018-12-05T02:10:06.661Z,0.00
2018-12-05T02:11:06.634Z,0.00
2018-12-05T02:12:06.612Z,0.00
2018-12-05T02:13:06.586Z,0.00
2018-12-05T02:14:06.562Z,0.00
2018-12-05T02:15:06.537Z,0.00
2018-12-05T02:16:06.513Z,0.00
2018-12-05T02:17:06.487Z,0.00
2018-12-05T02:18:06.461Z,0.00
2018-12-05T02:19:06.447Z,0.00
2018-12-05T02:20:06.414Z,0.00
2018-12-05T02:21:06.387Z,0.00
2018-12-05T02:22:06.363Z,0.00
2018-12-05T02:23:06.338Z,0.00
2018-12-05T02:24:06.314Z,0.00
2018-12-05T02:25:06.287Z,0.00
2018-12-05T02:26:06.262Z,0.00
2018-12-05T02:27:06.237Z,0.00
2018-12-05T02:28:06.213Z,0.00
2018-12-05T02:29:06.190Z,0.00
2018-12-05T02:30:06.167Z,0.00
2018-12-05T02:31:06.141Z,0.00
2018-12-05T02:32:06.115Z,0.00
2018-12-05T02:33:06.090Z,0.00
2018-12-05T02:34:06.064Z,0.00
2018-12-05T02:35:06.042Z,0.00
2018-12-05T02:36:06.017Z,0.00
2018-12-05T02:37:06.001Z,0.00
2018-12-05T02:38:05.966Z,0.00
2018-12-05T02:39:05.940Z,0.00
2018-12-05T02:40:05.916Z,0.00
2018-12-05T02:41:05.891Z,0.00
2018-12-05T02:42:05.868Z,0.00
2018-12-05T02:43:05.843Z,0.00
2018-12-05T02:44:05.822Z,0.00
2018-12-05T02:45:05.790Z,0.00
2018-12-05T02:46:05.772Z,0.00
2018-12-05T02:47:05.743Z,0.00
2018-12-05T02:48:05.721Z,0.00
2018-12-05T02:49:05.692Z,0.00
2018-12-05T02:50:05.669Z,0.00
2018-12-05T02:51:05.643Z,0.00
2018-12-05T02:52:05.627Z,0.00
2018-12-05T02:53:05.593Z,0.00
2018-12-05T02:54:05.637Z,0.00
2018-12-05T02:55:05.544Z,0.00
2018-12-05T02:56:05.521Z,0.00
2018-12-05T02:57:05.503Z,0.00
2018-12-05T02:58:05.468Z,0.00
2018-12-05T02:59:05.448Z,0.00
2018-12-05T03:00:05.418Z,0.00
2018-12-05T03:01:05.391Z,0.00
2018-12-05T03:02:05.368Z,0.00
2018-12-05T03:03:05.343Z,0.00
2018-12-05T03:04:05.319Z,0.00
2018-12-05T03:05:05.291Z,0.00
2018-12-05T03:06:05.270Z,0.00
2018-12-05T03:07:05.243Z,0.00
2018-12-05T03:08:05.220Z,0.00
2018-12-05T03:09:05.195Z,0.00
2018-12-05T03:10:05.174Z,0.00
2018-12-05T03:11:05.150Z,0.00
2018-12-05T03:12:05.121Z,0.00
2018-12-05T03:13:05.094Z,0.00
2018-12-05T03:14:05.072Z,0.00
2018-12-05T03:15:05.045Z,0.00
2018-12-05T03:16:05.022Z,0.00
2018-12-05T03:17:05.000Z,0.00
2018-12-05T03:18:04.970Z,0.00
2018-12-05T03:19:04.952Z,0.00
2018-12-05T03:20:05.438Z,0.00
2018-12-05T03:21:04.895Z,0.00
2018-12-05T03:22:04.875Z,0.00
2018-12-05T03:23:04.845Z,0.00
2018-12-05T03:24:04.828Z,0.00
2018-12-05T03:25:04.793Z,0.00
2018-12-05T03:26:04.769Z,0.00
2018-12-05T03:27:04.746Z,0.00
2018-12-05T03:28:04.720Z,0.00
2018-12-05T03:29:06.736Z,0.00
2018-12-05T03:30:04.670Z,0.00
2018-12-05T03:31:04.650Z,0.00
2018-12-05T03:32:04.641Z,0.00
2018-12-05T03:33:04.609Z,0.00
2018-12-05T03:34:04.571Z,0.00
2018-12-05T03:35:04.546Z,0.00
2018-12-05T03:36:04.520Z,0.00
2018-12-05T03:37:04.496Z,0.00
2018-12-05T03:38:04.470Z,0.00
2018-12-05T03:39:04.449Z,0.00
2018-12-05T03:40:04.422Z,0.00
2018-12-05T03:41:04.397Z,0.00
2018-12-05T03:42:04.371Z,0.00
2018-12-05T03:43:04.346Z,0.00
2018-12-05T03:44:04.323Z,0.00
2018-12-05T03:45:04.297Z,0.00
2018-12-05T03:46:04.269Z,0.00
2018-12-05T03:47:04.246Z,0.00
2018-12-05T03:48:04.224Z,0.00
2018-12-05T03:49:04.195Z,0.00
2018-12-05T03:50:04.171Z,0.00
2018-12-05T03:51:04.152Z,0.00
2018-12-05T03:52:04.124Z,0.00
2018-12-05T03:53:04.099Z,0.00
2018-12-05T03:54:04.073Z,0.00
2018-12-05T03:55:04.046Z,0.00
2018-12-05T03:56:04.019Z,0.00
2018-12-05T03:57:03.993Z,0.00
2018-12-05T03:58:03.974Z,0.00
2018-12-05T03:59:03.952Z,0.00
2018-12-05T04:00:03.920Z,0.00
2018-12-05T04:01:03.903Z,0.00
2018-12-05T04:02:03.869Z,0.00
2018-12-05T04:03:03.848Z,0.00
2018-12-05T04:04:03.822Z,0.00
2018-12-05T04:05:03.798Z,0.00
2018-12-05T04:06:03.770Z,0.00
2018-12-05T04:07:03.745Z,0.00
2018-12-05T04:08:03.722Z,0.00
2018-12-05T04:09:03.694Z,0.00
2018-12-05T04:10:03.670Z,0.00
2018-12-05T04:11:03.645Z,0.00
2018-12-05T04:12:03.620Z,0.00
2018-12-05T04:13:03.597Z,0.00
2018-12-05T04:14:03.570Z,0.00
2018-12-05T04:15:03.546Z,0.00
2018-12-05T04:16:03.521Z,0.00
2018-12-05T04:17:03.497Z,0.00
2018-12-05T04:18:03.480Z,0.00
2018-12-05T04:19:03.448Z,0.00
2018-12-05T04:20:03.424Z,0.00
2018-12-05T04:21:03.395Z,0.00
2018-12-05T04:22:03.377Z,0.00
2018-12-05T04:23:03.347Z,0.00
2018-12-05T04:24:03.321Z,0.00
2018-12-05T04:25:03.304Z,0.00
2018-12-05T04:26:03.270Z,0.00
2018-12-05T04:27:03.244Z,0.00
2018-12-05T04:28:03.222Z,0.00
2018-12-05T04:29:03.196Z,0.00
2018-12-05T04:30:03.171Z,0.00
2018-12-05T04:31:03.145Z,0.00
2018-12-05T04:32:03.120Z,0.00
2018-12-05T04:33:03.099Z,0.00
2018-12-05T04:34:03.077Z,0.00
2018-12-05T04:35:03.043Z,0.00
2018-12-05T04:36:03.020Z,0.00
2018-12-05T04:37:02.993Z,0.00
2018-12-05T04:38:02.970Z,0.00
2018-12-05T04:39:02.943Z,0.00
2018-12-05T04:40:02.923Z,0.00
2018-12-05T04:41:02.904Z,0.00
2018-12-05T04:42:02.868Z,0.00
2018-12-05T04:43:02.900Z,0.00
2018-12-05T04:44:02.822Z,0.00
2018-12-05T04:45:02.797Z,0.00
2018-12-05T04:46:02.766Z,0.00
2018-12-05T04:47:02.743Z,0.00
2018-12-05T04:48:02.717Z,0.00
2018-12-05T04:49:02.692Z,0.00
2018-12-05T04:50:02.666Z,0.00
2018-12-05T04:51:02.641Z,0.00
2018-12-05T04:52:02.617Z,0.00
2018-12-05T04:53:02.589Z,0.00
2018-12-05T04:54:02.565Z,0.00
2018-12-05T04:55:02.545Z,0.00
2018-12-05T04:56:02.522Z,0.00
2018-12-05T04:57:02.494Z,0.00
2018-12-05T04:58:02.464Z,0.00
2018-12-05T04:59:02.441Z,0.00
2018-12-05T05:00:02.414Z,0.00
2018-12-05T05:01:02.388Z,0.00
2018-12-05T05:02:02.363Z,0.00
2018-12-05T05:03:02.344Z,0.00
2018-12-05T05:04:02.320Z,0.00
2018-12-05T05:05:02.288Z,0.00
2018-12-05T05:06:02.272Z,0.00
2018-12-05T05:07:02.238Z,0.00
2018-12-05T05:08:02.211Z,0.00
2018-12-05T05:09:02.190Z,0.00
2018-12-05T05:10:02.167Z,0.00
2018-12-05T05:11:02.138Z,0.00
2018-12-05T05:12:02.130Z,0.00
2018-12-05T05:13:02.096Z,0.00
2018-12-05T05:14:02.060Z,0.00
2018-12-05T05:15:02.045Z,0.00
2018-12-05T05:16:02.011Z,0.00
2018-12-05T05:17:01.985Z,0.00
2018-12-05T05:18:01.959Z,0.00
2018-12-05T05:19:01.935Z,0.00
2018-12-05T05:20:01.912Z,0.00
2018-12-05T05:21:01.883Z,0.00
2018-12-05T05:22:01.860Z,0.00
2018-12-05T05:23:01.835Z,0.00
2018-12-05T05:24:01.810Z,0.00
2018-12-05T05:25:01.784Z,0.00
2018-12-05T05:26:01.758Z,0.00
2018-12-05T05:27:01.732Z,0.00
2018-12-05T05:28:01.710Z,0.00
2018-12-05T05:29:01.689Z,0.00
2018-12-05T05:30:01.666Z,0.00
2018-12-05T05:31:01.633Z,0.00
2018-12-05T05:32:01.613Z,0.00
2018-12-05T05:33:01.590Z,0.00
2018-12-05T05:34:01.567Z,0.00
2018-12-05T05:35:01.535Z,0.00
2018-12-05T05:36:01.520Z,0.00
2018-12-05T05:37:01.483Z,0.00
2018-12-05T05:38:01.456Z,0.00
2018-12-05T05:39:01.431Z,0.00
2018-12-05T05:40:01.413Z,0.00
2018-12-05T05:41:01.389Z,0.00
2018-12-05T05:42:01.364Z,0.00
2018-12-05T05:43:01.331Z,0.00
2018-12-05T05:44:01.309Z,0.00
2018-12-05T05:45:01.281Z,0.00
2018-12-05T05:46:01.254Z,0.00
2018-12-05T05:47:01.233Z,0.00
2018-12-05T05:48:01.206Z,0.00
2018-12-05T05:49:01.179Z,0.00
2018-12-05T05:50:01.154Z,0.00
2018-12-05T05:51:01.134Z,0.00
2018-12-05T05:52:01.103Z,0.00
2018-12-05T05:53:01.079Z,0.00
2018-12-05T05:54:01.065Z,0.00
2018-12-05T05:55:01.029Z,0.00
2018-12-05T05:56:01.005Z,0.00
2018-12-05T05:57:00.979Z,0.00
2018-12-05T05:58:00.966Z,0.00
2018-12-05T05:59:00.929Z,0.00
2018-12-05T06:00:00.906Z,0.00
2018-12-05T06:01:00.958Z,0.00
2018-12-05T06:02:00.853Z,0.00
2018-12-05T06:03:00.829Z,0.00
2018-12-05T06:04:00.809Z,0.00
2018-12-05T06:05:00.780Z,0.00
2018-12-05T06:06:00.756Z,0.00
2018-12-05T06:07:00.727Z,0.00
2018-12-05T06:08:00.703Z,0.00
2018-12-05T06:09:00.676Z,0.00
2018-12-05T06:10:00.653Z,0.00
2018-12-05T06:11:00.624Z,0.00
2018-12-05T06:12:00.604Z,0.00
2018-12-05T06:13:00.573Z,0.00
2018-12-05T06:14:00.548Z,0.00
2018-12-05T06:15:00.524Z,0.00
2018-12-05T06:16:00.507Z,0.00
2018-12-05T06:17:00.474Z,0.00
2018-12-05T06:18:00.449Z,0.00
2018-12-05T06:19:00.428Z,0.00
2018-12-05T06:20:00.400Z,0.00
2018-12-05T06:21:00.386Z,0.00
2018-12-05T06:22:00.355Z,0.00
2018-12-05T06:23:00.331Z,0.00
2018-12-05T06:24:00.297Z,0.00
2018-12-05T06:25:00.272Z,0.00
2018-12-05T06:26:00.252Z,0.00
2018-12-05T06:27:00.220Z,0.00
2018-12-05T06:28:00.194Z,0.00
2018-12-05T06:29:00.169Z,0.00
2018-12-05T06:30:00.145Z,0.00
2018-12-05T06:31:00.123Z,0.00
2018-12-05T06:32:00.104Z,0.00
2018-12-05T06:33:00.068Z,0.00
2018-12-05T06:34:00.044Z,0.00
2018-12-05T06:35:00.019Z,0.00
2018-12-05T06:36:00.000Z,0.00
2018-12-05T06:36:59.967Z,0.00
2018-12-05T06:37:59.945Z,0.00
2018-12-05T06:38:59.916Z,0.00
2018-12-05T06:39:59.898Z,0.00
2018-12-05T06:40:59.864Z,0.00
2018-12-05T06:41:59.921Z,0.00
2018-12-05T06:42:59.832Z,0.00
2018-12-05T06:43:59.801Z,0.00
2018-12-05T06:44:59.765Z,0.00
2018-12-05T06:45:59.742Z,0.00
2018-12-05T06:46:59.714Z,0.00
2018-12-05T06:47:59.690Z,0.00
2018-12-05T06:48:59.665Z,0.00
2018-12-05T06:49:59.650Z,0.00
2018-12-05T06:50:59.629Z,0.00
2018-12-05T06:51:59.589Z,0.00
2018-12-05T06:52:59.562Z,0.00
2018-12-05T06:53:59.538Z,0.00
2018-12-05T06:54:59.512Z,4.00
2018-12-05T06:55:59.490Z,0.00
2018-12-05T06:56:59.463Z,0.00
2018-12-05T06:57:59.440Z,0.00
2018-12-05T06:58:59.410Z,4.00
2018-12-05T06:59:59.388Z,0.00
2018-12-05T07:00:59.362Z,4.00
2018-12-05T07:01:59.337Z,4.00
2018-12-05T07:02:59.317Z,4.00
2018-12-05T07:03:59.286Z,0.00
2018-12-05T07:04:59.257Z,4.00
2018-12-05T07:05:59.234Z,4.00
2018-12-05T07:06:59.207Z,4.00
2018-12-05T07:07:59.186Z,8.00
2018-12-05T07:08:59.174Z,4.00
2018-12-05T07:09:59.140Z,8.00
2018-12-05T07:10:59.105Z,8.00
2018-12-05T07:11:59.079Z,8.00
2018-12-05T07:12:59.055Z,8.00
2018-12-05T07:13:59.032Z,12.00
2018-12-05T07:14:59.008Z,8.00
2018-12-05T07:15:58.982Z,8.00
2018-12-05T07:16:58.953Z,12.00
2018-12-05T07:17:58.928Z,12.00
2018-12-05T07:18:58.912Z,12.00
2018-12-05T07:19:58.884Z,16.00
2018-12-05T07:20:58.863Z,16.00
2018-12-05T07:21:58.825Z,16.00
2018-12-05T07:22:58.804Z,16.00
2018-12-05T07:23:58.782Z,16.00
2018-12-05T07:24:58.798Z,20.00
2018-12-05T07:25:58.726Z,24.00
2018-12-05T07:26:58.698Z,24.00
2018-12-05T07:27:58.674Z,24.00
2018-12-05T07:28:58.648Z,28.00
2018-12-05T07:29:58.624Z,28.00
2018-12-05T07:30:58.599Z,28.00
2018-12-05T07:31:58.579Z,32.00
2018-12-05T07:32:58.547Z,32.00
2018-12-05T07:33:58.531Z,36.00
2018-12-05T07:34:58.499Z,40.00
2018-12-05T07:35:58.472Z,36.00
2018-12-05T07:36:58.451Z,40.00
2018-12-05T07:37:58.421Z,44.00
2018-12-05T07:38:58.402Z,40.00
2018-12-05T07:39:58.371Z,44.00
2018-12-05T07:40:58.344Z,44.00
2018-12-05T07:41:58.320Z,48.00
2018-12-05T07:42:58.298Z,52.00
2018-12-05T07:43:58.282Z,52.00
2018-12-05T07:44:58.244Z,56.00
2018-12-05T07:45:58.220Z,56.00
2018-12-05T07:46:58.193Z,56.00
2018-12-05T07:47:58.167Z,56.00
2018-12-05T07:48:58.146Z,56.00
2018-12-05T07:49:58.119Z,64.00
2018-12-05T07:50:58.091Z,64.00
2018-12-05T07:51:58.066Z,64.00
2018-12-05T07:52:58.044Z,64.00
2018-12-05T07:53:58.024Z,68.00
2018-12-05T07:54:57.990Z,68.00
2018-12-05T07:55:57.965Z,72.00
2018-12-05T07:56:57.941Z,76.00
2018-12-05T07:57:57.917Z,80.00
2018-12-05T07:58:57.890Z,84.00
2018-12-05T07:59:57.864Z,92.00
2018-12-05T08:00:57.837Z,96.00
2018-12-05T08:01:57.825Z,100.00
2018-12-05T08:02:57.796Z,108.00
2018-12-05T08:03:57.764Z,108.00
2018-12-05T08:04:57.737Z,112.00
2018-12-05T08:05:57.714Z,116.00
2018-12-05T08:06:57.687Z,120.00
2018-12-05T08:07:57.671Z,124.00
2018-12-05T08:08:57.640Z,128.00
2018-12-05T08:09:57.690Z,128.00
2018-12-05T08:10:57.586Z,132.00
2018-12-05T08:11:57.561Z,140.00
2018-12-05T08:12:57.535Z,140.00
2018-12-05T08:13:57.509Z,148.00
2018-12-05T08:14:57.486Z,148.00
2018-12-05T08:15:57.458Z,152.00
2018-12-05T08:16:57.435Z,156.00
2018-12-05T08:17:57.412Z,160.00
2018-12-05T08:18:57.392Z,172.00
2018-12-05T08:19:57.358Z,172.00
2018-12-05T08:20:57.332Z,184.00
2018-12-05T08:21:57.306Z,196.00
2018-12-05T08:22:57.282Z,204.00
2018-12-05T08:23:57.266Z,208.00
2018-12-05T08:24:57.234Z,212.00
2018-12-05T08:25:57.213Z,216.00
2018-12-05T08:26:57.182Z,216.00
2018-12-05T08:27:57.156Z,212.00
2018-12-05T08:28:57.130Z,212.00
2018-12-05T08:29:57.106Z,196.00
2018-12-05T08:30:57.082Z,200.00
2018-12-05T08:31:57.056Z,200.00
2018-12-05T08:32:57.031Z,204.00
2018-12-05T08:33:57.011Z,216.00
2018-12-05T08:34:56.981Z,216.00
2018-12-05T08:35:56.955Z,208.00
2018-12-05T08:36:56.930Z,204.00
2018-12-05T08:37:56.904Z,200.00
2018-12-05T08:38:56.883Z,196.00
2018-12-05T08:39:56.854Z,200.00
2018-12-05T08:40:56.830Z,208.00
2018-12-05T08:41:56.806Z,216.00
2018-12-05T08:42:56.778Z,224.00
2018-12-05T08:43:56.755Z,220.00
2018-12-05T08:44:56.749Z,224.00
2018-12-05T08:45:56.704Z,216.00
2018-12-05T08:46:56.680Z,216.00
2018-12-05T08:47:56.654Z,212.00
2018-12-05T08:48:56.629Z,216.00
2018-12-05T08:49:56.603Z,212.00
2018-12-05T08:50:56.578Z,216.00
2018-12-05T08:51:56.553Z,220.00
2018-12-05T08:52:56.529Z,224.00
2018-12-05T08:53:56.501Z,232.00
2018-12-05T08:54:56.478Z,232.00
2018-12-05T08:55:56.454Z,236.00
2018-12-05T08:56:56.433Z,240.00
2018-12-05T08:57:56.403Z,240.00
2018-12-05T08:58:56.378Z,244.00
2018-12-05T08:59:56.354Z,240.00
2018-12-05T09:00:56.330Z,236.00
2018-12-05T09:01:56.301Z,232.00
2018-12-05T09:02:56.280Z,228.00
2018-12-05T09:03:56.253Z,228.00
2018-12-05T09:04:56.228Z,232.00
2018-12-05T09:05:56.207Z,232.00
2018-12-05T09:06:56.180Z,232.00
2018-12-05T09:07:56.160Z,232.00
2018-12-05T09:08:56.132Z,236.00
2018-12-05T09:09:56.107Z,236.00
2018-12-05T09:10:56.077Z,232.00
2018-12-05T09:11:56.057Z,232.00
2018-12-05T09:12:56.031Z,232.00
2018-12-05T09:13:56.014Z,228.00
2018-12-05T09:14:55.987Z,220.00
2018-12-05T09:15:55.957Z,232.00
2018-12-05T09:16:55.940Z,228.00
2018-12-05T09:17:55.916Z,236.00
2018-12-05T09:18:55.881Z,240.00
2018-12-05T09:19:55.857Z,248.00
2018-12-05T09:20:55.830Z,256.00
2018-12-05T09:21:55.805Z,260.00
2018-12-05T09:22:55.782Z,260.00
2018-12-05T09:23:55.758Z,256.00
2018-12-05T09:24:55.731Z,256.00
2018-12-05T09:25:55.708Z,256.00
2018-12-05T09:26:55.687Z,260.00
2018-12-05T09:27:55.657Z,264.00
2018-12-05T09:28:57.361Z,264.00
2018-12-05T09:29:55.612Z,268.00
2018-12-05T09:30:55.585Z,268.00
2018-12-05T09:31:55.558Z,272.00
2018-12-05T09:32:56.729Z,272.00
2018-12-05T09:33:55.510Z,272.00
2018-12-05T09:34:55.485Z,276.00
2018-12-05T09:35:55.469Z,272.00
2018-12-05T09:36:55.433Z,272.00
2018-12-05T09:37:55.417Z,276.00
2018-12-05T09:38:55.386Z,276.00
2018-12-05T09:39:55.363Z,280.00
2018-12-05T09:40:55.333Z,280.00
2018-12-05T09:41:55.320Z,284.00
2018-12-05T09:42:55.287Z,284.00
2018-12-05T09:43:55.265Z,284.00
2018-12-05T09:44:55.236Z,284.00
2018-12-05T09:45:55.215Z,284.00
2018-12-05T09:46:55.185Z,308.00
2018-12-05T09:47:55.179Z,292.00
2018-12-05T09:48:55.137Z,292.00
2018-12-05T09:49:55.121Z,292.00
2018-12-05T09:50:55.088Z,292.00
2018-12-05T09:51:55.062Z,300.00
2018-12-05T09:52:55.043Z,304.00
2018-12-05T09:53:55.013Z,304.00
2018-12-05T09:54:54.994Z,304.00
2018-12-05T09:55:54.964Z,304.00
2018-12-05T09:56:54.940Z,304.00
2018-12-05T09:57:54.914Z,300.00
2018-12-05T09:58:54.898Z,304.00
2018-12-05T09:59:54.866Z,296.00
2018-12-05T10:00:54.840Z,292.00
2018-12-05T10:01:54.816Z,288.00
2018-12-05T10:02:54.795Z,288.00
2018-12-05T10:03:54.769Z,284.00
2018-12-05T10:04:54.743Z,284.00
2018-12-05T10:05:54.717Z,284.00
2018-12-05T10:06:54.703Z,280.00
2018-12-05T10:07:54.670Z,280.00
2018-12-05T10:08:54.644Z,280.00
2018-12-05T10:09:54.624Z,280.00
2018-12-05T10:10:54.594Z,280.00
2018-12-05T10:11:54.575Z,284.00
2018-12-05T10:12:54.544Z,284.00
2018-12-05T10:13:54.523Z,288.00
2018-12-05T10:14:54.507Z,292.00
2018-12-05T10:15:54.471Z,292.00
2018-12-05T10:16:54.445Z,296.00
2018-12-05T10:17:54.426Z,300.00
2018-12-05T10:18:54.403Z,308.00
2018-12-05T10:19:54.379Z,312.00
2018-12-05T10:20:56.070Z,324.00
2018-12-05T10:21:54.324Z,312.00
2018-12-05T10:22:54.312Z,312.00
2018-12-05T10:23:54.284Z,312.00
2018-12-05T10:24:54.258Z,312.00
2018-12-05T10:25:54.225Z,316.00
2018-12-05T10:26:54.205Z,332.00
2018-12-05T10:27:54.186Z,340.00
2018-12-05T10:28:54.159Z,348.00
2018-12-05T10:29:54.127Z,364.00
2018-12-05T10:30:54.103Z,344.00
2018-12-05T10:31:54.086Z,348.00
2018-12-05T10:32:54.056Z,324.00
2018-12-05T10:33:54.027Z,312.00
2018-12-05T10:34:54.005Z,308.00
2018-12-05T10:35:53.980Z,300.00
2018-12-05T10:36:53.955Z,296.00
2018-12-05T10:37:54.571Z,292.00
2018-12-05T10:38:53.905Z,292.00
2018-12-05T10:39:53.888Z,292.00
2018-12-05T10:40:53.857Z,292.00
2018-12-05T10:41:53.833Z,296.00
2018-12-05T10:42:53.810Z,296.00
2018-12-05T10:43:53.784Z,300.00
2018-12-05T10:44:53.758Z,300.00
2018-12-05T10:45:53.740Z,296.00
2018-12-05T10:46:53.712Z,300.00
2018-12-05T10:47:53.687Z,300.00
2018-12-05T10:48:53.661Z,300.00
2018-12-05T10:49:53.638Z,304.00
2018-12-05T10:50:53.612Z,304.00
2018-12-05T10:51:53.589Z,308.00
2018-12-05T10:52:53.562Z,308.00
2018-12-05T10:53:53.539Z,312.00
2018-12-05T10:54:53.513Z,308.00
2018-12-05T10:55:53.500Z,312.00
2018-12-05T10:56:53.468Z,308.00
2018-12-05T10:57:53.439Z,308.00
2018-12-05T10:58:53.424Z,308.00
2018-12-05T10:59:53.390Z,304.00
2018-12-05T11:00:53.366Z,304.00
2018-12-05T11:01:53.345Z,304.00
2018-12-05T11:02:53.322Z,304.00
2018-12-05T11:03:53.293Z,304.00
2018-12-05T11:04:53.271Z,304.00
2018-12-05T11:05:53.244Z,308.00
2018-12-05T11:06:53.228Z,308.00
2018-12-05T11:07:53.197Z,308.00
2018-12-05T11:08:53.181Z,312.00
2018-12-05T11:09:53.155Z,312.00
2018-12-05T11:10:53.124Z,308.00
2018-12-05T11:11:53.101Z,304.00
2018-12-05T11:12:53.074Z,304.00
2018-12-05T11:13:53.050Z,300.00
2018-12-05T11:14:53.025Z,304.00
2018-12-05T11:15:53.007Z,304.00
2018-12-05T11:16:52.976Z,304.00
2018-12-05T11:17:52.951Z,312.00
2018-12-05T11:18:52.927Z,312.00
2018-12-05T11:19:52.905Z,316.00
2018-12-05T11:20:52.881Z,320.00
2018-12-05T11:21:52.857Z,324.00
2018-12-05T11:22:52.835Z,328.00
2018-12-05T11:23:52.813Z,324.00
2018-12-05T11:24:52.781Z,328.00
2018-12-05T11:25:52.759Z,328.00
2018-12-05T11:26:52.736Z,328.00
2018-12-05T11:27:52.712Z,328.00
2018-12-05T11:28:52.683Z,328.00
2018-12-05T11:29:52.665Z,324.00
2018-12-05T11:30:52.639Z,324.00
2018-12-05T11:31:52.615Z,320.00
2018-12-05T11:32:52.599Z,316.00
2018-12-05T11:33:52.567Z,316.00
2018-12-05T11:34:52.538Z,312.00
2018-12-05T11:35:52.517Z,312.00
2018-12-05T11:36:52.490Z,312.00
2018-12-05T11:37:52.467Z,316.00
2018-12-05T11:38:52.441Z,312.00
2018-12-05T11:39:52.421Z,312.00
2018-12-05T11:40:52.393Z,308.00
2018-12-05T11:41:52.376Z,312.00
2018-12-05T11:42:52.347Z,312.00
2018-12-05T11:43:52.320Z,316.00
2018-12-05T11:44:52.332Z,320.00
2018-12-05T11:45:52.272Z,324.00
2018-12-05T11:46:52.249Z,324.00
2018-12-05T11:47:52.225Z,324.00
2018-12-05T11:48:52.199Z,320.00
2018-12-05T11:49:52.185Z,320.00
2018-12-05T11:50:52.155Z,320.00
2018-12-05T11:51:52.911Z,320.00
2018-12-05T11:52:52.103Z,320.00
2018-12-05T11:53:52.078Z,316.00
2018-12-05T11:54:52.055Z,316.00
2018-12-05T11:55:52.032Z,312.00
2018-12-05T11:56:52.007Z,304.00
2018-12-05T11:57:52.730Z,300.00
2018-12-05T11:58:51.958Z,288.00
2018-12-05T11:59:51.935Z,284.00
2018-12-05T12:00:51.910Z,272.00
2018-12-05T12:01:51.886Z,264.00
2018-12-05T12:02:51.872Z,252.00
2018-12-05T12:03:51.838Z,248.00
2018-12-05T12:04:51.812Z,244.00
2018-12-05T12:05:51.793Z,240.00
2018-12-05T12:06:51.765Z,236.00
2018-12-05T12:07:51.743Z,236.00
2018-12-05T12:08:51.724Z,232.00
2018-12-05T12:09:51.694Z,232.00
2018-12-05T12:10:51.671Z,232.00
2018-12-05T12:11:51.647Z,232.00
2018-12-05T12:12:51.627Z,224.00
2018-12-05T12:13:51.597Z,224.00
2018-12-05T12:14:51.573Z,220.00
2018-12-05T12:15:51.556Z,216.00
2018-12-05T12:16:51.525Z,216.00
2018-12-05T12:17:51.502Z,216.00
2018-12-05T12:18:51.480Z,216.00
2018-12-05T12:19:51.455Z,212.00
2018-12-05T12:20:51.429Z,208.00
2018-12-05T12:21:51.415Z,208.00
2018-12-05T12:22:51.384Z,204.00
2018-12-05T12:23:53.158Z,204.00
2018-12-05T12:24:51.334Z,200.00
2018-12-05T12:25:51.309Z,196.00
2018-12-05T12:26:51.288Z,196.00
2018-12-05T12:27:51.261Z,196.00
2018-12-05T12:28:51.234Z,200.00
2018-12-05T12:29:51.212Z,196.00
2018-12-05T12:30:51.190Z,192.00
2018-12-05T12:31:51.169Z,188.00
2018-12-05T12:32:51.140Z,188.00
2018-12-05T12:33:51.116Z,184.00
2018-12-05T12:34:51.095Z,184.00
2018-12-05T12:35:51.079Z,184.00
2018-12-05T12:36:51.055Z,180.00
2018-12-05T12:37:51.046Z,184.00
2018-12-05T12:38:50.996Z,188.00
2018-12-05T12:39:50.981Z,192.00
2018-12-05T12:40:50.954Z,192.00
2018-12-05T12:41:50.923Z,196.00
2018-12-05T12:42:50.898Z,196.00
2018-12-05T12:43:50.876Z,200.00
2018-12-05T12:44:50.855Z,204.00
2018-12-05T12:45:50.829Z,200.00
2018-12-05T12:46:50.810Z,204.00
2018-12-05T12:47:50.780Z,204.00
2018-12-05T12:48:50.759Z,204.00
2018-12-05T12:49:50.731Z,204.00
2018-12-05T12:50:50.708Z,204.00
2018-12-05T12:51:50.691Z,208.00
2018-12-05T12:52:50.666Z,212.00
2018-12-05T12:53:50.634Z,212.00
2018-12-05T12:54:50.620Z,216.00
2018-12-05T12:55:50.596Z,216.00
2018-12-05T12:56:50.563Z,216.00